Leviticus — WDC2712 — position and weather

sailwx.info

Track history (hours):
 
Tides and Currents Weather Stations Pressure Air Temp Water Temp Dewpoint Dewpoint Depression Visibility Wind Speed Wind Dir Waves Ship Positions

Leviticus

Owner: Kirby Inland Marine, LP, Houston, TX. More information available from US FCC via Universal Licensing System and Coast Guard Vessel Documentation Center.

Last reported at 2017-Nov-04 15:48 UTC. Time now 2017-Nov-22 11:19 UTC.
Position N 32°36' W 091°09'.
Warning: this ship's position is 17 days out of date.

Length 317 m; draft 0.6 m.

Type: . MMSI: 366996690.

Date/timePositionNaut miles runAvg speedWind from/ knotsBaromVisibWave heightAir tempDewpointWater temp
2017-Nov-04 15:48N 32°36' W 091°09'2 5.2
2017-Nov-04 15:30N 32°35' W 091°08'5 4.1
2017-Nov-04 14:16N 32°30' W 091°07'1 5.7
2017-Nov-04 14:00N 32°29' W 091°07'3 5.4
2017-Nov-04 13:30N 32°27' W 091°04'3 5.4
2017-Nov-04 13:01N 32°26' W 091°01'2 4.7
2017-Nov-04 12:30N 32°24' W 090°59'2 5.0
2017-Nov-04 12:01N 32°22' W 091°00'3 5.4
2017-Nov-04 11:31N 32°21' W 090°57'3 5.1
2017-Nov-04 11:01N 32°20' W 090°54'2 4.3
2017-Nov-04 10:31N 32°18' W 090°55'0 0.0
2017-Nov-04 10:01N 32°18' W 090°55'0 0.0
2017-Nov-04 09:30N 32°18' W 090°55'0 0.0
2017-Nov-04 09:00N 32°18' W 090°55'0 0.0
2017-Nov-04 08:31N 32°18' W 090°55'0 0.0
2017-Nov-04 08:00N 32°18' W 090°55'0 0.0
2017-Nov-04 07:30N 32°18' W 090°55'0 0.0
2017-Nov-04 07:01N 32°18' W 090°55'0 0.0
2017-Nov-04 06:30N 32°18' W 090°55'0 0.0
2017-Nov-04 06:01N 32°18' W 090°55'2 4.0
2017-Nov-04 05:31N 32°17' W 090°57'3 5.2
2017-Nov-04 05:00N 32°15' W 090°59'3 5.1
2017-Nov-04 04:30N 32°12' W 090°59'3 5.6
2017-Nov-04 04:00N 32°10' W 091°00'2 4.5
2017-Nov-04 03:31N 32°08' W 091°01'2 4.6
2017-Nov-04 03:00N 32°08' W 091°04'3 5.1
2017-Nov-04 02:31N 32°08' W 091°07'5 5.1
2017-Nov-04 01:34N 32°03' W 091°03'0 4.9
2017-Nov-04 01:28N 32°03' W 091°03'2 5.4
2017-Nov-04 01:00N 32°01' W 091°05'  
2017-Oct-31 18:54N 29°50' W 091°58'3 6.4
2017-Oct-31 18:30N 29°50' W 092°00'3 6.3
2017-Oct-31 18:00N 29°48' W 092°04'3 6.2
2017-Oct-31 17:31N 29°47' W 092°07'3 6.3
2017-Oct-31 17:01N 29°47' W 092°11'3 5.2
2017-Oct-31 16:31N 29°48' W 092°13'1 1.1
2017-Oct-31 16:01N 29°48' W 092°14'0 0.1
2017-Oct-31 15:30N 29°48' W 092°14'0 0.2
2017-Oct-31 15:00N 29°48' W 092°14'0 0.0
2017-Oct-31 14:30N 29°48' W 092°14'1 1.9
2017-Oct-31 14:00N 29°48' W 092°15'3 6.0
2017-Oct-31 13:30N 29°50' W 092°18'3 5.2
2017-Oct-31 12:55N 29°51' W 092°21'32 5.7
2017-Oct-31 07:13N 29°56' W 092°58'3 6.0
2017-Oct-31 06:41N 29°56' W 093°02'1 5.1
2017-Oct-31 06:30N 29°56' W 093°03'2 4.6
2017-Oct-31 06:01N 29°56' W 093°05'3 5.6
2017-Oct-31 05:31N 29°56' W 093°09'3 5.1
2017-Oct-31 05:01N 29°58' W 093°11'3 5.9
2017-Oct-31 04:31N 29°60' W 093°13'2 4.0
2017-Oct-31 04:00N 30°02' W 093°14'2 3.1
2017-Oct-31 03:30N 30°03' W 093°16'2 3.9
2017-Oct-31 03:01N 30°04' W 093°16'2 3.5
2017-Oct-31 02:31N 30°06' W 093°18'1 1.1
2017-Oct-31 02:00N 30°06' W 093°18'0 0.0
2017-Oct-31 01:31N 30°06' W 093°18'0 0.0
2017-Oct-31 01:01N 30°06' W 093°18'0 0.1
2017-Oct-31 00:31N 30°06' W 093°18'0 0.0
2017-Oct-31 00:00N 30°06' W 093°18'0 0.1
2017-Oct-30 23:31N 30°06' W 093°18'0 0.1
2017-Oct-30 23:00N 30°06' W 093°18'0 0.1
2017-Oct-30 22:31N 30°06' W 093°18'0 0.0
2017-Oct-30 22:00N 30°06' W 093°18'0 0.0
2017-Oct-30 21:31N 30°06' W 093°18'0 0.0
2017-Oct-30 21:01N 30°06' W 093°18'0 0.0
2017-Oct-30 20:30N 30°06' W 093°18'0 0.0
2017-Oct-30 20:00N 30°06' W 093°18'0 0.0
2017-Oct-30 19:30N 30°06' W 093°18'0 0.0
2017-Oct-30 19:00N 30°06' W 093°18'0 0.1
2017-Oct-30 18:30N 30°06' W 093°18'0 0.1
2017-Oct-30 18:00N 30°06' W 093°18'0 0.1
2017-Oct-30 17:30N 30°06' W 093°18'1 1.1
2017-Oct-30 17:01N 30°06' W 093°19'0 0.7
2017-Oct-30 16:30N 30°06' W 093°19'2 3.8
2017-Oct-30 16:01N 30°04' W 093°20'2 3.9
2017-Oct-30 15:31N 30°04' W 093°23'3 6.0
2017-Oct-30 15:01N 30°04' W 093°26'6 5.9
2017-Oct-30 14:00N 30°04' W 093°33'3 6.3
2017-Oct-30 13:30N 30°04' W 093°36'3 5.8
2017-Oct-30 12:58N 30°03' W 093°40'71 4.6
2017-Oct-29 21:22N 29°32' W 094°54'3 9.2
2017-Oct-29 21:00N 29°35' W 094°56'510.0
2017-Oct-29 20:30N 29°39' W 094°58'4 8.1
2017-Oct-29 19:59N 29°42' W 095°01'6 1.0
2017-Oct-29 14:15N 29°47' W 095°04'0 0.0
2017-Oct-29 13:59N 29°47' W 095°04'1 0.1
2017-Oct-29 09:29N 29°47' W 095°05'0 0.0
2017-Oct-29 09:00N 29°47' W 095°05'0 0.0
2017-Oct-29 08:30N 29°47' W 095°05'0 0.0
2017-Oct-29 08:00N 29°47' W 095°05'0 0.0
2017-Oct-29 07:30N 29°47' W 095°05'0 0.0
2017-Oct-29 07:00N 29°47' W 095°05'0 0.0
2017-Oct-29 06:30N 29°47' W 095°05'0 0.2
2017-Oct-29 06:00N 29°47' W 095°04'0 0.1
2017-Oct-29 05:30N 29°47' W 095°04'0 0.1
2017-Oct-29 04:59N 29°47' W 095°05'1 0.7
2017-Oct-29 03:34N 29°46' W 095°05'77 3.8
2017-Oct-28 07:10N 30°04' W 093°38'1 4.1
2017-Oct-28 06:52N 30°04' W 093°37'3 4.6
2017-Oct-28 06:18N 30°04' W 093°34'1 4.5
2017-Oct-28 05:59N 30°04' W 093°32'2 4.6
2017-Oct-28 05:30N 30°04' W 093°30'2 4.7
2017-Oct-28 05:00N 30°04' W 093°27'2 4.7
2017-Oct-28 04:30N 30°04' W 093°24'2 3.9
2017-Oct-28 04:00N 30°04' W 093°22'0 0.6
2017-Oct-28 03:30N 30°04' W 093°22'0 0.4
2017-Oct-28 03:00N 30°04' W 093°22'0 0.0
2017-Oct-28 02:30N 30°04' W 093°22'0 0.0
2017-Oct-28 02:00N 30°04' W 093°22'0 0.0
2017-Oct-28 01:30N 30°04' W 093°22'0 0.0
2017-Oct-28 01:00N 30°04' W 093°22'0 0.0
2017-Oct-28 00:30N 30°04' W 093°22'0 0.0
2017-Oct-28 00:00N 30°04' W 093°22'0 0.2
2017-Oct-27 23:30N 30°04' W 093°22'0 0.2
2017-Oct-27 23:00N 30°04' W 093°22'1 2.8
2017-Oct-27 22:30N 30°04' W 093°20'2 3.1
2017-Oct-27 22:00N 30°06' W 093°19'1 3.0
2017-Oct-27 21:30N 30°05' W 093°18'2 3.2
2017-Oct-27 21:00N 30°04' W 093°16'0 0.3
2017-Oct-27 20:30N 30°04' W 093°16'0 0.1
2017-Oct-27 20:00N 30°04' W 093°16'0 0.1
2017-Oct-27 19:30N 30°04' W 093°16'0 0.1
2017-Oct-27 19:00N 30°04' W 093°16'0 0.1
2017-Oct-27 18:30N 30°04' W 093°16'0 0.0
2017-Oct-27 18:00N 30°04' W 093°16'0 0.0
2017-Oct-27 17:30N 30°04' W 093°16'0 1.0
2017-Oct-27 17:00N 30°04' W 093°16'1 1.7
2017-Oct-27 16:30N 30°03' W 093°16'2 4.4
2017-Oct-27 16:00N 30°01' W 093°14'2 4.2
2017-Oct-27 15:30N 29°59' W 093°13'2 4.7
2017-Oct-27 15:00N 29°58' W 093°11'2 4.5
2017-Oct-27 14:30N 29°56' W 093°09'37 4.2
2017-Oct-27 05:49N 29°54' W 092°27'2 4.3
2017-Oct-27 05:19N 29°53' W 092°25'4 3.9
2017-Oct-27 04:22N 29°51' W 092°22'1 3.9
2017-Oct-27 04:00N 29°51' W 092°20'2 3.9
2017-Oct-27 03:30N 29°50' W 092°18'2 4.2
2017-Oct-27 03:00N 29°49' W 092°16'2 4.8
2017-Oct-27 02:30N 29°48' W 092°14'2 3.7
2017-Oct-27 02:00N 29°47' W 092°12'2 3.9
2017-Oct-27 01:30N 29°47' W 092°09'2 4.4
2017-Oct-27 01:00N 29°48' W 092°07'2 4.4
2017-Oct-27 00:30N 29°48' W 092°05'2 4.7
2017-Oct-27 00:00N 29°49' W 092°02'2 4.6
2017-Oct-26 23:30N 29°50' W 091°59'  
Track history (hours):
 
Tides and Currents Weather Stations Pressure Air Temp Water Temp Dewpoint Dewpoint Depression Visibility Wind Speed Wind Dir Waves Ship Positions

Leviticus

Owner: Kirby Inland Marine, LP, Houston, TX. More information available from US FCC via Universal Licensing System and Coast Guard Vessel Documentation Center.

Last reported at 2017-Nov-04 15:48 UTC. Time now 2017-Nov-22 11:19 UTC.
Position N 32°36' W 091°09'.
Warning: this ship's position is 17 days out of date.

Length 317 m; draft 0.6 m.

Type: . MMSI: 366996690.

Date/timePositionNaut miles runAvg speedWind from/ knotsBaromVisibWave heightAir tempDewpointWater temp
2017-Nov-04 15:48N 32°36' W 091°09'2 5.2
2017-Nov-04 15:30N 32°35' W 091°08'5 4.1
2017-Nov-04 14:16N 32°30' W 091°07'1 5.7
2017-Nov-04 14:00N 32°29' W 091°07'3 5.4
2017-Nov-04 13:30N 32°27' W 091°04'3 5.4
2017-Nov-04 13:01N 32°26' W 091°01'2 4.7
2017-Nov-04 12:30N 32°24' W 090°59'2 5.0
2017-Nov-04 12:01N 32°22' W 091°00'3 5.4
2017-Nov-04 11:31N 32°21' W 090°57'3 5.1
2017-Nov-04 11:01N 32°20' W 090°54'2 4.3
2017-Nov-04 10:31N 32°18' W 090°55'0 0.0
2017-Nov-04 10:01N 32°18' W 090°55'0 0.0
2017-Nov-04 09:30N 32°18' W 090°55'0 0.0
2017-Nov-04 09:00N 32°18' W 090°55'0 0.0
2017-Nov-04 08:31N 32°18' W 090°55'0 0.0
2017-Nov-04 08:00N 32°18' W 090°55'0 0.0
2017-Nov-04 07:30N 32°18' W 090°55'0 0.0
2017-Nov-04 07:01N 32°18' W 090°55'0 0.0
2017-Nov-04 06:30N 32°18' W 090°55'0 0.0
2017-Nov-04 06:01N 32°18' W 090°55'2 4.0
2017-Nov-04 05:31N 32°17' W 090°57'3 5.2
2017-Nov-04 05:00N 32°15' W 090°59'3 5.1
2017-Nov-04 04:30N 32°12' W 090°59'3 5.6
2017-Nov-04 04:00N 32°10' W 091°00'2 4.5
2017-Nov-04 03:31N 32°08' W 091°01'2 4.6
2017-Nov-04 03:00N 32°08' W 091°04'3 5.1
2017-Nov-04 02:31N 32°08' W 091°07'5 5.1
2017-Nov-04 01:34N 32°03' W 091°03'0 4.9
2017-Nov-04 01:28N 32°03' W 091°03'2 5.4
2017-Nov-04 01:00N 32°01' W 091°05'  
2017-Oct-31 18:54N 29°50' W 091°58'3 6.4
2017-Oct-31 18:30N 29°50' W 092°00'3 6.3
2017-Oct-31 18:00N 29°48' W 092°04'3 6.2
2017-Oct-31 17:31N 29°47' W 092°07'3 6.3
2017-Oct-31 17:01N 29°47' W 092°11'3 5.2
2017-Oct-31 16:31N 29°48' W 092°13'1 1.1
2017-Oct-31 16:01N 29°48' W 092°14'0 0.1
2017-Oct-31 15:30N 29°48' W 092°14'0 0.2
2017-Oct-31 15:00N 29°48' W 092°14'0 0.0
2017-Oct-31 14:30N 29°48' W 092°14'1 1.9
2017-Oct-31 14:00N 29°48' W 092°15'3 6.0
2017-Oct-31 13:30N 29°50' W 092°18'3 5.2
2017-Oct-31 12:55N 29°51' W 092°21'32 5.7
2017-Oct-31 07:13N 29°56' W 092°58'3 6.0
2017-Oct-31 06:41N 29°56' W 093°02'1 5.1
2017-Oct-31 06:30N 29°56' W 093°03'2 4.6
2017-Oct-31 06:01N 29°56' W 093°05'3 5.6
2017-Oct-31 05:31N 29°56' W 093°09'3 5.1
2017-Oct-31 05:01N 29°58' W 093°11'3 5.9
2017-Oct-31 04:31N 29°60' W 093°13'2 4.0
2017-Oct-31 04:00N 30°02' W 093°14'2 3.1
2017-Oct-31 03:30N 30°03' W 093°16'2 3.9
2017-Oct-31 03:01N 30°04' W 093°16'2 3.5
2017-Oct-31 02:31N 30°06' W 093°18'1 1.1
2017-Oct-31 02:00N 30°06' W 093°18'0 0.0
2017-Oct-31 01:31N 30°06' W 093°18'0 0.0
2017-Oct-31 01:01N 30°06' W 093°18'0 0.1
2017-Oct-31 00:31N 30°06' W 093°18'0 0.0
2017-Oct-31 00:00N 30°06' W 093°18'0 0.1
2017-Oct-30 23:31N 30°06' W 093°18'0 0.1
2017-Oct-30 23:00N 30°06' W 093°18'0 0.1
2017-Oct-30 22:31N 30°06' W 093°18'0 0.0
2017-Oct-30 22:00N 30°06' W 093°18'0 0.0
2017-Oct-30 21:31N 30°06' W 093°18'0 0.0
2017-Oct-30 21:01N 30°06' W 093°18'0 0.0
2017-Oct-30 20:30N 30°06' W 093°18'0 0.0
2017-Oct-30 20:00N 30°06' W 093°18'0 0.0
2017-Oct-30 19:30N 30°06' W 093°18'0 0.0
2017-Oct-30 19:00N 30°06' W 093°18'0 0.1
2017-Oct-30 18:30N 30°06' W 093°18'0 0.1
2017-Oct-30 18:00N 30°06' W 093°18'0 0.1
2017-Oct-30 17:30N 30°06' W 093°18'1 1.1
2017-Oct-30 17:01N 30°06' W 093°19'0 0.7
2017-Oct-30 16:30N 30°06' W 093°19'2 3.8
2017-Oct-30 16:01N 30°04' W 093°20'2 3.9
2017-Oct-30 15:31N 30°04' W 093°23'3 6.0
2017-Oct-30 15:01N 30°04' W 093°26'6 5.9
2017-Oct-30 14:00N 30°04' W 093°33'3 6.3
2017-Oct-30 13:30N 30°04' W 093°36'3 5.8
2017-Oct-30 12:58N 30°03' W 093°40'71 4.6
2017-Oct-29 21:22N 29°32' W 094°54'3 9.2
2017-Oct-29 21:00N 29°35' W 094°56'510.0
2017-Oct-29 20:30N 29°39' W 094°58'4 8.1
2017-Oct-29 19:59N 29°42' W 095°01'6 1.0
2017-Oct-29 14:15N 29°47' W 095°04'0 0.0
2017-Oct-29 13:59N 29°47' W 095°04'1 0.1
2017-Oct-29 09:29N 29°47' W 095°05'0 0.0
2017-Oct-29 09:00N 29°47' W 095°05'0 0.0
2017-Oct-29 08:30N 29°47' W 095°05'0 0.0
2017-Oct-29 08:00N 29°47' W 095°05'0 0.0
2017-Oct-29 07:30N 29°47' W 095°05'0 0.0
2017-Oct-29 07:00N 29°47' W 095°05'0 0.0
2017-Oct-29 06:30N 29°47' W 095°05'0 0.2
2017-Oct-29 06:00N 29°47' W 095°04'0 0.1
2017-Oct-29 05:30N 29°47' W 095°04'0 0.1
2017-Oct-29 04:59N 29°47' W 095°05'1 0.7
2017-Oct-29 03:34N 29°46' W 095°05'77 3.8
2017-Oct-28 07:10N 30°04' W 093°38'1 4.1
2017-Oct-28 06:52N 30°04' W 093°37'3 4.6
2017-Oct-28 06:18N 30°04' W 093°34'1 4.5
2017-Oct-28 05:59N 30°04' W 093°32'2 4.6
2017-Oct-28 05:30N 30°04' W 093°30'2 4.7
2017-Oct-28 05:00N 30°04' W 093°27'2 4.7
2017-Oct-28 04:30N 30°04' W 093°24'2 3.9
2017-Oct-28 04:00N 30°04' W 093°22'0 0.6
2017-Oct-28 03:30N 30°04' W 093°22'0 0.4
2017-Oct-28 03:00N 30°04' W 093°22'0 0.0
2017-Oct-28 02:30N 30°04' W 093°22'0 0.0
2017-Oct-28 02:00N 30°04' W 093°22'0 0.0
2017-Oct-28 01:30N 30°04' W 093°22'0 0.0
2017-Oct-28 01:00N 30°04' W 093°22'0 0.0
2017-Oct-28 00:30N 30°04' W 093°22'0 0.0
2017-Oct-28 00:00N 30°04' W 093°22'0 0.2
2017-Oct-27 23:30N 30°04' W 093°22'0 0.2
2017-Oct-27 23:00N 30°04' W 093°22'1 2.8
2017-Oct-27 22:30N 30°04' W 093°20'2 3.1
2017-Oct-27 22:00N 30°06' W 093°19'1 3.0
2017-Oct-27 21:30N 30°05' W 093°18'2 3.2
2017-Oct-27 21:00N 30°04' W 093°16'0 0.3
2017-Oct-27 20:30N 30°04' W 093°16'0 0.1
2017-Oct-27 20:00N 30°04' W 093°16'0 0.1
2017-Oct-27 19:30N 30°04' W 093°16'0 0.1
2017-Oct-27 19:00N 30°04' W 093°16'0 0.1
2017-Oct-27 18:30N 30°04' W 093°16'0 0.0
2017-Oct-27 18:00N 30°04' W 093°16'0 0.0
2017-Oct-27 17:30N 30°04' W 093°16'0 1.0
2017-Oct-27 17:00N 30°04' W 093°16'1 1.7
2017-Oct-27 16:30N 30°03' W 093°16'2 4.4
2017-Oct-27 16:00N 30°01' W 093°14'2 4.2
2017-Oct-27 15:30N 29°59' W 093°13'2 4.7
2017-Oct-27 15:00N 29°58' W 093°11'2 4.5
2017-Oct-27 14:30N 29°56' W 093°09'37 4.2
2017-Oct-27 05:49N 29°54' W 092°27'2 4.3
2017-Oct-27 05:19N 29°53' W 092°25'4 3.9
2017-Oct-27 04:22N 29°51' W 092°22'1 3.9
2017-Oct-27 04:00N 29°51' W 092°20'2 3.9
2017-Oct-27 03:30N 29°50' W 092°18'2 4.2
2017-Oct-27 03:00N 29°49' W 092°16'2 4.8
2017-Oct-27 02:30N 29°48' W 092°14'2 3.7
2017-Oct-27 02:00N 29°47' W 092°12'2 3.9
2017-Oct-27 01:30N 29°47' W 092°09'2 4.4
2017-Oct-27 01:00N 29°48' W 092°07'2 4.4
2017-Oct-27 00:30N 29°48' W 092°05'2 4.7
2017-Oct-27 00:00N 29°49' W 092°02'2 4.6
2017-Oct-26 23:30N 29°50' W 091°59'  

Dump ship's entire track history